createdAt,value
2019-04-27T00:01:19.245Z,13.81
2019-04-27T00:03:47.875Z,14.10
2019-04-27T00:06:16.509Z,13.76
2019-04-27T00:08:45.141Z,13.90
2019-04-27T00:11:13.935Z,13.68
2019-04-27T00:13:44.077Z,13.71
2019-04-27T00:16:13.514Z,14.21
2019-04-27T00:18:45.070Z,13.72
2019-04-27T00:21:13.458Z,13.56
2019-04-27T00:23:44.539Z,13.72
2019-04-27T00:26:12.990Z,13.62
2019-04-27T00:28:40.459Z,13.89
2019-04-27T00:31:07.914Z,13.92
2019-04-27T00:33:34.638Z,13.76
2019-04-27T00:36:03.312Z,14.15
2019-04-27T00:38:33.445Z,14.28
2019-04-27T00:41:02.940Z,14.17
2019-04-27T00:43:30.092Z,14.07
2019-04-27T00:45:56.751Z,13.90
2019-04-27T00:48:23.526Z,13.86
2019-04-27T00:50:52.810Z,14.19
2019-04-27T00:53:20.040Z,14.02
2019-04-27T00:55:48.609Z,14.23
2019-04-27T00:58:17.087Z,14.29
2019-04-27T01:00:44.079Z,14.44
2019-04-27T01:03:13.959Z,14.38
2019-04-27T01:05:40.769Z,14.03
2019-04-27T01:08:07.651Z,14.05
2019-04-27T01:10:34.315Z,13.70
2019-04-27T01:13:01.132Z,13.74
2019-04-27T01:15:28.323Z,13.99
2019-04-27T01:18:07.058Z,14.12
2019-04-27T01:20:23.649Z,14.07
2019-04-27T01:22:50.490Z,14.03
2019-04-27T01:25:18.879Z,13.97
2019-04-27T01:27:49.364Z,13.63
2019-04-27T01:30:18.890Z,13.60
2019-04-27T01:32:45.918Z,13.87
2019-04-27T01:35:12.587Z,13.96
2019-04-27T01:37:39.191Z,13.97
2019-04-27T01:40:07.099Z,13.95
2019-04-27T01:42:33.755Z,13.92
2019-04-27T01:45:00.476Z,13.74
2019-04-27T01:47:28.841Z,13.56
2019-04-27T01:49:55.941Z,13.48
2019-04-27T01:52:22.528Z,13.71
2019-04-27T01:54:49.615Z,13.75
2019-04-27T01:57:16.395Z,13.96
2019-04-27T01:59:43.111Z,13.92
2019-04-27T02:02:11.804Z,13.64
2019-04-27T02:04:40.727Z,13.32
2019-04-27T02:07:09.596Z,13.30
2019-04-27T02:09:36.299Z,13.34
2019-04-27T02:12:03.653Z,13.64
2019-04-27T02:14:30.436Z,13.33
2019-04-27T02:16:57.143Z,13.41
2019-04-27T02:19:23.966Z,13.41
2019-04-27T02:21:51.557Z,13.42
2019-04-27T02:24:18.744Z,13.63
2019-04-27T02:26:45.889Z,13.34
2019-04-27T02:29:14.461Z,13.28
2019-04-27T02:31:43.102Z,13.29
2019-04-27T02:34:11.752Z,13.26
2019-04-27T02:36:39.177Z,13.28
2019-04-27T02:39:09.312Z,13.29
2019-04-27T02:41:36.188Z,13.61
2019-04-27T02:44:06.552Z,13.36
2019-04-27T02:46:33.417Z,13.37
2019-04-27T02:49:06.078Z,13.40
2019-04-27T02:51:30.631Z,13.55
2019-04-27T02:54:00.201Z,13.40
2019-04-27T02:56:27.513Z,13.44
2019-04-27T02:58:54.488Z,13.23
2019-04-27T03:01:23.770Z,13.08
2019-04-27T03:03:50.632Z,13.33
2019-04-27T03:06:19.680Z,13.21
2019-04-27T03:08:49.509Z,13.38
2019-04-27T03:11:14.557Z,13.32
2019-04-27T03:13:43.143Z,13.25
2019-04-27T03:16:13.445Z,13.41
2019-04-27T03:18:42.215Z,13.35
2019-04-27T03:21:13.102Z,13.33
2019-04-27T03:23:41.164Z,13.07
2019-04-27T03:26:10.791Z,13.00
2019-04-27T03:28:40.152Z,13.32
2019-04-27T03:31:06.686Z,13.37
2019-04-27T03:33:34.101Z,13.26
2019-04-27T03:36:02.527Z,13.09
2019-04-27T03:38:30.213Z,12.79
2019-04-27T03:40:57.387Z,12.83
2019-04-27T03:43:24.371Z,13.00
2019-04-27T03:45:52.295Z,12.99
2019-04-27T03:48:20.366Z,12.92
2019-04-27T03:50:50.609Z,13.04
2019-04-27T03:53:20.517Z,12.94
2019-04-27T03:55:50.616Z,13.02
2019-04-27T03:58:21.626Z,13.18
2019-04-27T04:00:51.970Z,13.12
2019-04-27T04:03:20.255Z,13.11
2019-04-27T04:05:47.066Z,13.18
2019-04-27T04:08:14.038Z,13.43
2019-04-27T04:10:42.666Z,13.75
2019-04-27T04:13:11.179Z,13.89
2019-04-27T04:15:40.040Z,13.89
2019-04-27T04:18:06.932Z,13.98
2019-04-27T04:20:34.629Z,14.09
2019-04-27T04:23:03.391Z,14.02
2019-04-27T04:25:33.117Z,14.13
2019-04-27T04:28:00.597Z,14.04
2019-04-27T04:30:30.019Z,14.24
2019-04-27T04:32:56.217Z,14.11
2019-04-27T04:35:23.862Z,14.24
2019-04-27T04:37:52.832Z,14.12
2019-04-27T04:40:23.238Z,13.74
2019-04-27T04:42:52.030Z,13.98
2019-04-27T04:45:20.646Z,14.48
2019-04-27T04:47:49.761Z,14.53
2019-04-27T04:50:16.746Z,14.76
2019-04-27T04:52:43.473Z,15.03
2019-04-27T04:55:10.476Z,15.18
2019-04-27T04:57:37.274Z,15.23
2019-04-27T05:00:05.556Z,15.32
2019-04-27T05:02:32.274Z,15.57
2019-04-27T05:04:59.122Z,15.68
2019-04-27T05:07:27.479Z,15.73
2019-04-27T05:09:54.896Z,15.98
2019-04-27T05:12:22.657Z,16.22
2019-04-27T05:14:51.469Z,16.43
2019-04-27T05:17:19.639Z,16.63
2019-04-27T05:19:49.094Z,16.82
2019-04-27T05:22:16.251Z,16.97
2019-04-27T05:24:43.655Z,17.16
2019-04-27T05:27:10.538Z,17.31
2019-04-27T05:29:38.828Z,17.40
2019-04-27T05:32:05.657Z,17.45
2019-04-27T05:34:32.928Z,17.62
2019-04-27T05:37:01.128Z,17.70
2019-04-27T05:39:29.780Z,17.79
2019-04-27T05:41:56.467Z,17.89
2019-04-27T05:44:24.994Z,17.87
2019-04-27T05:46:53.700Z,17.84
2019-04-27T05:49:22.303Z,18.02
2019-04-27T05:51:50.144Z,18.23
2019-04-27T05:54:19.232Z,18.40
2019-04-27T05:56:46.416Z,18.32
2019-04-27T05:59:14.798Z,18.36
2019-04-27T06:01:41.730Z,18.55
2019-04-27T06:04:09.067Z,18.72
2019-04-27T06:06:36.333Z,18.70
2019-04-27T06:09:05.968Z,18.82
2019-04-27T06:11:32.627Z,19.03
2019-04-27T06:13:59.442Z,19.24
2019-04-27T06:16:26.154Z,19.48
2019-04-27T06:18:53.095Z,19.09
2019-04-27T06:21:19.773Z,19.10
2019-04-27T06:23:48.715Z,18.63
2019-04-27T06:26:15.487Z,18.72
2019-04-27T06:28:42.058Z,18.98
2019-04-27T06:31:08.890Z,19.08
2019-04-27T06:33:35.506Z,19.21
2019-04-27T06:36:02.399Z,19.02
2019-04-27T06:38:30.192Z,19.12
2019-04-27T06:40:56.773Z,18.89
2019-04-27T06:43:23.372Z,18.81
2019-04-27T06:45:49.964Z,18.85
2019-04-27T06:48:16.512Z,19.22
2019-04-27T06:50:43.124Z,19.28
2019-04-27T06:53:09.663Z,19.26
2019-04-27T06:55:36.218Z,19.34
2019-04-27T06:58:03.728Z,19.75
2019-04-27T07:00:30.415Z,19.85
2019-04-27T07:02:56.968Z,20.07
2019-04-27T07:05:24.053Z,20.14
2019-04-27T07:07:50.848Z,19.77
2019-04-27T07:10:18.610Z,19.70
2019-04-27T07:12:45.671Z,20.10
2019-04-27T07:15:15.395Z,19.76
2019-04-27T07:17:41.039Z,19.88
2019-04-27T07:20:09.194Z,19.83
2019-04-27T07:22:35.895Z,20.25
2019-04-27T07:25:05.223Z,20.34
2019-04-27T07:27:32.420Z,20.51
2019-04-27T07:30:01.554Z,20.58
2019-04-27T07:32:29.347Z,20.15
2019-04-27T07:34:55.918Z,20.22
2019-04-27T07:37:22.578Z,20.31
2019-04-27T07:39:49.399Z,20.81
2019-04-27T07:42:16.981Z,21.02
2019-04-27T07:44:47.065Z,20.94
2019-04-27T07:47:16.040Z,20.74
2019-04-27T07:49:45.008Z,20.79
2019-04-27T07:52:12.862Z,20.53
2019-04-27T07:54:41.001Z,20.25
2019-04-27T07:57:09.738Z,20.57
2019-04-27T07:59:36.639Z,20.02
2019-04-27T08:02:04.586Z,20.19
2019-04-27T08:04:31.363Z,20.18
2019-04-27T08:06:59.562Z,20.08
2019-04-27T08:09:26.508Z,19.91
2019-04-27T08:11:53.371Z,19.60
2019-04-27T08:14:19.941Z,19.93
2019-04-27T08:16:48.486Z,19.57
2019-04-27T08:19:15.403Z,20.07
2019-04-27T08:21:44.562Z,20.20
2019-04-27T08:24:11.755Z,20.30
2019-04-27T08:26:40.690Z,20.00
2019-04-27T08:29:09.313Z,19.82
2019-04-27T08:31:38.643Z,19.65
2019-04-27T08:34:08.572Z,19.08
2019-04-27T08:36:35.374Z,18.96
2019-04-27T08:39:04.968Z,19.11
2019-04-27T08:41:32.131Z,19.17
2019-04-27T08:43:58.829Z,19.00
2019-04-27T08:46:25.403Z,19.12
2019-04-27T08:48:52.163Z,18.94
2019-04-27T08:51:19.657Z,18.66
2019-04-27T08:53:46.606Z,18.88
2019-04-27T08:56:14.622Z,19.06
2019-04-27T08:58:41.253Z,19.21
2019-04-27T09:01:10.162Z,19.16
2019-04-27T09:03:36.468Z,18.90
2019-04-27T09:06:05.200Z,18.49
2019-04-27T09:08:34.835Z,18.57
2019-04-27T09:11:03.526Z,18.58
2019-04-27T09:13:32.187Z,18.95
2019-04-27T09:16:01.022Z,19.31
2019-04-27T09:18:32.369Z,19.35
2019-04-27T09:21:00.183Z,19.65
2019-04-27T09:23:28.513Z,19.63
2019-04-27T09:25:59.325Z,19.50
2019-04-27T09:28:26.025Z,19.15
2019-04-27T09:30:52.868Z,19.61
2019-04-27T09:33:22.161Z,19.62
2019-04-27T09:35:48.226Z,19.82
2019-04-27T09:38:14.860Z,20.15
2019-04-27T09:40:41.403Z,19.90
2019-04-27T09:43:07.977Z,19.95
2019-04-27T09:45:34.893Z,19.89
2019-04-27T09:48:01.702Z,19.92
2019-04-27T09:50:28.609Z,20.10
2019-04-27T09:52:55.803Z,20.40
2019-04-27T09:55:22.979Z,20.34
2019-04-27T09:57:49.651Z,20.25
2019-04-27T10:00:18.008Z,20.08
2019-04-27T10:02:46.422Z,20.37
2019-04-27T10:05:15.373Z,20.27
2019-04-27T10:07:43.246Z,20.33
2019-04-27T10:10:10.404Z,20.35
2019-04-27T10:12:37.288Z,20.46
2019-04-27T10:15:08.052Z,19.96
2019-04-27T10:17:34.683Z,20.19
2019-04-27T10:20:01.585Z,20.26
2019-04-27T10:22:40.341Z,20.03
2019-04-27T10:24:56.936Z,20.04
2019-04-27T10:27:23.564Z,19.76
2019-04-27T10:29:50.708Z,19.56
2019-04-27T10:32:17.661Z,19.47
2019-04-27T10:34:44.280Z,19.51
2019-04-27T10:37:11.507Z,19.41
2019-04-27T10:39:38.315Z,19.47
2019-04-27T10:42:06.733Z,19.46
2019-04-27T10:44:35.566Z,19.26
2019-04-27T10:47:02.749Z,18.84
2019-04-27T10:49:29.633Z,18.89
2019-04-27T10:51:56.470Z,19.03
2019-04-27T10:54:23.247Z,19.26
2019-04-27T10:56:50.381Z,18.86
2019-04-27T10:59:17.434Z,18.65
2019-04-27T11:01:45.860Z,18.90
2019-04-27T11:04:15.886Z,18.80
2019-04-27T11:06:45.109Z,18.61
2019-04-27T11:09:12.070Z,18.53
2019-04-27T11:11:39.549Z,18.71
2019-04-27T11:14:06.947Z,18.56
2019-04-27T11:16:35.665Z,18.81
2019-04-27T11:19:03.179Z,18.91
2019-04-27T11:21:30.200Z,18.48
2019-04-27T11:23:57.024Z,18.17
2019-04-27T11:26:23.928Z,18.41
2019-04-27T11:28:52.322Z,18.49
2019-04-27T11:31:20.202Z,18.44
2019-04-27T11:33:46.820Z,18.41
2019-04-27T11:36:17.051Z,18.33
2019-04-27T11:38:44.451Z,18.45
2019-04-27T11:41:11.080Z,17.98
2019-04-27T11:43:37.978Z,18.00
2019-04-27T11:46:06.169Z,18.10
2019-04-27T11:48:33.430Z,17.78
2019-04-27T11:51:00.335Z,17.88
2019-04-27T11:53:26.875Z,17.77
2019-04-27T11:55:53.899Z,17.59
2019-04-27T11:58:20.492Z,18.01
2019-04-27T12:00:47.185Z,17.81
2019-04-27T12:03:16.572Z,18.01
2019-04-27T12:05:43.499Z,18.26
2019-04-27T12:08:10.116Z,18.14
2019-04-27T12:10:36.728Z,18.04
2019-04-27T12:13:05.433Z,17.72
2019-04-27T12:15:32.366Z,18.02
2019-04-27T12:17:59.122Z,17.90
2019-04-27T12:20:26.079Z,17.84
2019-04-27T12:22:53.113Z,17.94
2019-04-27T12:25:20.116Z,17.95
2019-04-27T12:27:48.836Z,17.85
2019-04-27T12:30:18.255Z,17.73
2019-04-27T12:32:45.692Z,17.99
2019-04-27T12:35:13.663Z,18.18
2019-04-27T12:37:40.254Z,17.70
2019-04-27T12:40:07.341Z,18.02
2019-04-27T12:42:36.234Z,18.19
2019-04-27T12:45:05.708Z,18.15
2019-04-27T12:47:32.666Z,17.90
2019-04-27T12:49:59.400Z,18.01
2019-04-27T12:52:26.268Z,17.85
2019-04-27T12:54:55.009Z,17.67
2019-04-27T12:57:26.885Z,17.49
2019-04-27T12:59:56.614Z,17.80
2019-04-27T13:02:28.040Z,17.68
2019-04-27T13:04:56.652Z,17.53
2019-04-27T13:07:23.495Z,17.32
2019-04-27T13:09:50.134Z,17.51
2019-04-27T13:12:18.150Z,17.32
2019-04-27T13:14:45.722Z,17.05
2019-04-27T13:17:12.686Z,16.99
2019-04-27T13:19:39.345Z,17.01
2019-04-27T13:22:09.017Z,16.96
2019-04-27T13:24:36.790Z,17.35
2019-04-27T13:27:06.516Z,17.49
2019-04-27T13:29:35.739Z,17.43
2019-04-27T13:32:03.240Z,17.47
2019-04-27T13:34:29.918Z,17.04
2019-04-27T13:36:58.637Z,17.16
2019-04-27T13:39:25.797Z,17.26
2019-04-27T13:41:52.759Z,16.83
2019-04-27T13:44:19.511Z,16.72
2019-04-27T13:46:48.213Z,16.91
2019-04-27T13:49:18.150Z,16.76
2019-04-27T13:51:46.623Z,16.77
2019-04-27T13:54:18.878Z,16.61
2019-04-27T13:56:43.812Z,16.67
2019-04-27T13:59:12.775Z,16.76
2019-04-27T14:01:40.588Z,16.70
2019-04-27T14:04:07.238Z,16.61
2019-04-27T14:06:34.119Z,16.85
2019-04-27T14:09:03.887Z,16.87
2019-04-27T14:11:32.558Z,16.98
2019-04-27T14:13:59.180Z,17.00
2019-04-27T14:16:25.774Z,16.88
2019-04-27T14:18:52.651Z,16.55
2019-04-27T14:21:19.310Z,16.53
2019-04-27T14:23:45.925Z,16.37
2019-04-27T14:26:12.943Z,16.58
2019-04-27T14:28:39.796Z,16.40
2019-04-27T14:31:06.551Z,16.29
2019-04-27T14:33:33.319Z,16.37
2019-04-27T14:36:00.054Z,16.44
2019-04-27T14:38:26.736Z,16.38
2019-04-27T14:40:53.646Z,16.30
2019-04-27T14:43:20.378Z,16.26
2019-04-27T14:45:48.616Z,16.20
2019-04-27T14:48:15.777Z,16.10
2019-04-27T14:50:42.665Z,16.09
2019-04-27T14:53:09.236Z,16.12
2019-04-27T14:55:35.951Z,16.12
2019-04-27T14:58:02.857Z,15.76
2019-04-27T15:00:30.680Z,15.77
2019-04-27T15:02:59.147Z,15.77
2019-04-27T15:05:26.141Z,15.77
2019-04-27T15:07:54.583Z,15.87
2019-04-27T15:10:27.011Z,15.65
2019-04-27T15:12:55.452Z,15.50
2019-04-27T15:15:22.031Z,15.78
2019-04-27T15:17:49.429Z,15.89
2019-04-27T15:20:18.553Z,15.65
2019-04-27T15:22:50.790Z,15.87
2019-04-27T15:25:15.905Z,15.56
2019-04-27T15:27:45.170Z,15.78
2019-04-27T15:30:14.529Z,15.93
2019-04-27T15:32:43.210Z,15.76
2019-04-27T15:35:11.939Z,15.51
2019-04-27T15:37:40.642Z,15.48
2019-04-27T15:40:12.679Z,15.74
2019-04-27T15:42:49.064Z,15.60
2019-04-27T15:45:12.060Z,15.39
2019-04-27T15:47:42.546Z,15.62
2019-04-27T15:50:08.727Z,15.46
2019-04-27T15:52:35.434Z,15.73
2019-04-27T15:55:11.015Z,15.49
2019-04-27T15:57:33.075Z,15.34
2019-04-27T15:59:59.847Z,15.05
2019-04-27T16:02:26.535Z,15.38
2019-04-27T16:04:53.619Z,15.18
2019-04-27T16:07:25.259Z,15.05
2019-04-27T16:09:49.423Z,15.13
2019-04-27T16:12:18.024Z,15.46
2019-04-27T16:14:44.828Z,15.45
2019-04-27T16:17:11.695Z,15.62
2019-04-27T16:19:42.627Z,15.36
2019-04-27T16:22:08.029Z,15.06
2019-04-27T16:24:34.993Z,15.36
2019-04-27T16:27:01.844Z,15.32
2019-04-27T16:29:31.575Z,15.05
2019-04-27T16:31:58.349Z,15.26
2019-04-27T16:34:25.475Z,15.14
2019-04-27T16:36:52.568Z,15.36
2019-04-27T16:39:20.411Z,15.27
2019-04-27T16:41:50.027Z,15.24
2019-04-27T16:44:15.941Z,15.26
2019-04-27T16:46:43.187Z,15.14
2019-04-27T16:49:14.025Z,15.10
2019-04-27T16:51:40.278Z,14.89
2019-04-27T16:54:13.065Z,14.74
2019-04-27T16:56:37.923Z,14.83
2019-04-27T16:59:25.895Z,14.74
2019-04-27T17:01:33.822Z,14.55
2019-04-27T17:04:00.655Z,14.59
2019-04-27T17:06:29.532Z,14.71
2019-04-27T17:08:57.476Z,14.71
2019-04-27T17:11:26.170Z,14.79
2019-04-27T17:13:56.223Z,14.77
2019-04-27T17:16:28.753Z,14.89
2019-04-27T17:19:04.614Z,14.56
2019-04-27T17:21:28.843Z,14.71
2019-04-27T17:23:58.732Z,14.70
2019-04-27T17:26:24.394Z,14.74
2019-04-27T17:28:53.192Z,14.89
2019-04-27T17:31:21.961Z,14.64
2019-04-27T17:33:51.768Z,14.76
2019-04-27T17:36:19.863Z,14.63
2019-04-27T17:38:50.857Z,14.70
2019-04-27T17:41:15.709Z,14.60
2019-04-27T17:43:42.812Z,14.69
2019-04-27T17:46:11.494Z,14.73
2019-04-27T17:48:38.622Z,14.65
2019-04-27T17:51:05.681Z,14.72
2019-04-27T17:53:33.200Z,14.80
2019-04-27T17:56:05.680Z,14.73
2019-04-27T17:58:28.747Z,14.58
2019-04-27T18:00:58.011Z,14.48
2019-04-27T18:03:25.828Z,14.65
2019-04-27T18:05:52.622Z,14.68
2019-04-27T18:08:24.605Z,14.59
2019-04-27T18:10:48.034Z,14.63
2019-04-27T18:13:20.867Z,14.73
2019-04-27T18:15:45.739Z,14.27
2019-04-27T18:18:13.887Z,14.55
2019-04-27T18:20:40.646Z,14.41
2019-04-27T18:23:15.184Z,14.49
2019-04-27T18:25:43.472Z,14.51
2019-04-27T18:28:15.176Z,14.59
2019-04-27T18:30:42.185Z,14.73
2019-04-27T18:33:08.893Z,14.46
2019-04-27T18:35:35.549Z,14.40
2019-04-27T18:38:02.385Z,14.62
2019-04-27T18:40:32.027Z,14.47
2019-04-27T18:42:57.937Z,14.62
2019-04-27T18:45:24.767Z,14.42
2019-04-27T18:47:56.415Z,14.54
2019-04-27T18:50:25.161Z,14.50
2019-04-27T18:52:54.084Z,14.57
2019-04-27T18:55:21.089Z,14.59
2019-04-27T18:57:50.981Z,14.66
2019-04-27T19:00:18.938Z,14.54
2019-04-27T19:02:45.790Z,14.53
2019-04-27T19:05:12.858Z,14.61
2019-04-27T19:07:40.171Z,14.61
2019-04-27T19:10:08.953Z,14.59
2019-04-27T19:12:36.068Z,14.60
2019-04-27T19:15:04.976Z,14.43
2019-04-27T19:17:33.587Z,14.37
2019-04-27T19:20:00.482Z,14.22
2019-04-27T19:22:27.948Z,14.20
2019-04-27T19:24:55.714Z,14.46
2019-04-27T19:27:24.262Z,14.39
2019-04-27T19:29:52.774Z,14.49
2019-04-27T19:32:19.742Z,14.45
2019-04-27T19:34:47.996Z,14.50
2019-04-27T19:37:15.064Z,14.42
2019-04-27T19:39:41.676Z,14.19
2019-04-27T19:42:08.415Z,14.36
2019-04-27T19:44:36.214Z,14.39
2019-04-27T19:47:05.651Z,14.38
2019-04-27T19:49:31.946Z,14.32
2019-04-27T19:51:58.883Z,14.30
2019-04-27T19:54:28.260Z,14.44
2019-04-27T19:56:54.860Z,14.34
2019-04-27T19:59:23.413Z,14.28
2019-04-27T20:01:52.658Z,14.03
2019-04-27T20:04:19.204Z,14.08
2019-04-27T20:06:45.928Z,14.10
2019-04-27T20:09:14.795Z,14.15
2019-04-27T20:11:41.460Z,14.25
2019-04-27T20:14:08.106Z,14.08
2019-04-27T20:16:34.819Z,14.13
2019-04-27T20:19:02.520Z,14.14
2019-04-27T20:21:30.809Z,14.21
2019-04-27T20:23:57.738Z,14.23
2019-04-27T20:26:24.411Z,14.26
2019-04-27T20:28:51.474Z,14.21
2019-04-27T20:31:18.116Z,14.35
2019-04-27T20:33:47.722Z,14.31
2019-04-27T20:36:14.348Z,14.41
2019-04-27T20:38:41.869Z,14.30
2019-04-27T20:41:08.685Z,14.26
2019-04-27T20:43:35.345Z,14.09
2019-04-27T20:46:02.158Z,14.06
2019-04-27T20:48:28.743Z,14.13
2019-04-27T20:50:55.357Z,14.33
2019-04-27T20:53:23.971Z,14.29
2019-04-27T20:55:50.652Z,14.14
2019-04-27T20:58:17.262Z,14.12
2019-04-27T21:00:44.187Z,14.28
2019-04-27T21:03:12.996Z,14.15
2019-04-27T21:05:41.686Z,13.98
2019-04-27T21:08:11.756Z,14.18
2019-04-27T21:10:38.684Z,14.18
2019-04-27T21:13:05.517Z,13.92
2019-04-27T21:15:32.172Z,14.08
2019-04-27T21:17:58.766Z,14.04
2019-04-27T21:20:25.449Z,14.22
2019-04-27T21:22:53.487Z,14.31
2019-04-27T21:25:23.073Z,14.28
2019-04-27T21:27:51.364Z,14.17
2019-04-27T21:30:18.196Z,14.20
2019-04-27T21:32:44.862Z,14.28
2019-04-27T21:35:11.722Z,14.26
2019-04-27T21:37:40.683Z,14.19
2019-04-27T21:40:11.288Z,14.16
2019-04-27T21:42:37.862Z,14.21
2019-04-27T21:45:05.063Z,14.07
2019-04-27T21:47:31.710Z,14.15
2019-04-27T21:49:58.275Z,14.22
2019-04-27T21:52:26.787Z,14.20
2019-04-27T21:54:54.667Z,14.31
2019-04-27T21:57:21.246Z,14.39
2019-04-27T21:59:47.864Z,14.24
2019-04-27T22:02:15.248Z,14.14
2019-04-27T22:04:42.013Z,14.21
2019-04-27T22:07:08.820Z,14.15
2019-04-27T22:09:35.670Z,14.24
2019-04-27T22:12:02.779Z,14.27
2019-04-27T22:14:29.473Z,13.85
2019-04-27T22:16:56.305Z,13.85
2019-04-27T22:19:23.435Z,14.05
2019-04-27T22:21:51.958Z,14.06
2019-04-27T22:24:21.272Z,14.04
2019-04-27T22:26:48.322Z,13.99
2019-04-27T22:29:14.941Z,14.05
2019-04-27T22:31:41.755Z,14.00
2019-04-27T22:34:08.647Z,13.81
2019-04-27T22:36:35.250Z,14.07
2019-04-27T22:39:07.467Z,13.97
2019-04-27T22:41:37.864Z,13.85
2019-04-27T22:44:06.447Z,13.88
2019-04-27T22:46:35.119Z,13.85
2019-04-27T22:49:01.963Z,13.97
2019-04-27T22:51:28.611Z,13.81
2019-04-27T22:53:55.300Z,13.88
2019-04-27T22:56:22.488Z,13.88
2019-04-27T22:58:58.618Z,13.77
2019-04-27T23:01:23.262Z,13.84
2019-04-27T23:03:51.747Z,13.92
2019-04-27T23:06:18.557Z,13.98
2019-04-27T23:08:45.172Z,13.98
2019-04-27T23:11:11.912Z,13.88
2019-04-27T23:13:38.904Z,13.77
2019-04-27T23:16:07.651Z,13.67
2019-04-27T23:18:34.311Z,13.80
2019-04-27T23:21:01.533Z,13.90
2019-04-27T23:23:30.896Z,13.90
2019-04-27T23:25:57.521Z,13.86
2019-04-27T23:28:24.227Z,13.79
2019-04-27T23:30:52.811Z,13.78
2019-04-27T23:33:21.083Z,13.75
2019-04-27T23:35:47.924Z,13.65
2019-04-27T23:38:17.775Z,13.70
2019-04-27T23:40:43.194Z,13.50
2019-04-27T23:43:11.473Z,13.40
2019-04-27T23:45:38.664Z,13.40
2019-04-27T23:48:05.397Z,13.37
2019-04-27T23:50:34.040Z,13.42
2019-04-27T23:53:02.646Z,13.39
2019-04-27T23:55:31.144Z,13.63
2019-04-27T23:57:57.766Z,13.71
